Time;durP1;ratioP1;P1;durP2;ratioP2;P2;SDS_P1;SDS_P2;PMS_P1;PMS_P2;Temp;Humidity;BMP_temperature;BMP_pressure;BME280_temperature;BME280_humidity;BME280_pressure;Samples;Min_cycle;Max_cycle;Signal;HPM_P1;HPM_P2
2021/12/22 00:01:49;;;;;;;31.75;19.05;;;-2.00;99.90;;;;;;5033669;28;20234;-55
2021/12/22 00:04:21;;;;;;;26.75;17.15;;;-2.00;99.90;;;;;;5033503;28;20204;-55
2021/12/22 00:06:48;;;;;;;33.05;18.23;;;-1.90;99.90;;;;;;5033124;28;20233;-57
2021/12/22 00:09:16;;;;;;;35.33;19.20;;;-1.90;99.90;;;;;;5033288;28;20202;-55
2021/12/22 00:11:43;;;;;;;28.88;16.90;;;-2.00;99.90;;;;;;5033400;28;20207;-55
2021/12/22 00:14:11;;;;;;;35.20;18.00;;;-2.00;99.90;;;;;;5033172;28;20218;-55
2021/12/22 00:16:38;;;;;;;35.80;20.35;;;-2.00;99.90;;;;;;5033565;28;20229;-56
2021/12/22 00:19:05;;;;;;;34.60;21.05;;;-2.00;99.90;;;;;;5033256;28;20221;-56
2021/12/22 00:21:34;;;;;;;35.90;19.50;;;-2.00;99.90;;;;;;5033376;28;20206;-56
2021/12/22 00:24:01;;;;;;;35.50;21.45;;;-2.00;99.90;;;;;;5034312;28;20285;-56
2021/12/22 00:26:28;;;;;;;36.05;19.48;;;-1.90;99.90;;;;;;5037170;28;20249;-56
2021/12/22 00:28:55;;;;;;;42.42;21.95;;;-1.90;99.90;;;;;;5037394;28;20205;-56
2021/12/22 00:31:22;;;;;;;38.53;22.42;;;-1.90;99.90;;;;;;5037557;28;20217;-56
2021/12/22 00:33:52;;;;;;;44.35;21.80;;;-1.90;99.90;;;;;;5037478;28;20279;-56
2021/12/22 00:36:21;;;;;;;40.47;19.65;;;-1.90;99.90;;;;;;5038000;28;20226;-56
2021/12/22 00:38:50;;;;;;;41.10;18.00;;;-1.90;99.90;;;;;;5037538;28;20237;-56
2021/12/22 00:41:17;;;;;;;38.97;17.63;;;-1.90;99.90;;;;;;5037108;28;20210;-56
2021/12/22 00:43:44;;;;;;;28.95;17.63;;;-1.90;99.90;;;;;;5037004;28;20574;-56
2021/12/22 00:46:12;;;;;;;32.97;18.40;;;-1.90;99.90;;;;;;5036713;28;20225;-56
2021/12/22 00:48:40;;;;;;;30.08;18.30;;;-2.00;99.90;;;;;;5037070;28;20202;-56
2021/12/22 00:51:07;;;;;;;32.47;17.88;;;-2.00;99.90;;;;;;5037487;28;20213;-56
2021/12/22 00:53:34;;;;;;;35.00;18.00;;;-2.00;99.90;;;;;;5036792;28;20586;-55
2021/12/22 00:56:04;;;;;;;31.80;16.88;;;-2.00;99.90;;;;;;5036413;28;20229;-55
2021/12/22 00:58:31;;;;;;;31.10;19.25;;;-2.10;99.90;;;;;;5036930;28;20206;-55
2021/12/22 01:00:58;;;;;;;28.88;17.30;;;-2.10;99.90;;;;;;5037425;28;20202;-56
2021/12/22 01:03:25;;;;;;;32.40;18.40;;;-2.10;99.90;;;;;;5037077;28;20202;-55
2021/12/22 01:05:53;;;;;;;55.00;20.08;;;-2.10;99.90;;;;;;5037936;28;20218;-54
2021/12/22 01:08:21;;;;;;;39.30;18.85;;;-2.10;99.90;;;;;;5036770;28;20202;-55
2021/12/22 01:10:48;;;;;;;29.25;18.50;;;-2.10;99.90;;;;;;5037188;28;20203;-54
2021/12/22 01:13:17;;;;;;;34.50;18.08;;;-2.10;99.90;;;;;;5036458;28;20202;-56
2021/12/22 01:15:44;;;;;;;32.13;19.23;;;-2.10;99.90;;;;;;5036190;28;20226;-55
2021/12/22 01:18:14;;;;;;;38.35;20.13;;;-2.10;99.90;;;;;;5036143;28;20213;-56
2021/12/22 01:20:57;;;;;;;30.45;18.58;;;-2.10;99.90;;;;;;5036102;28;20206;-55
2021/12/22 01:23:25;;;;;;;36.42;19.63;;;-2.10;99.90;;;;;;5036645;28;20217;-55
2021/12/22 01:25:52;;;;;;;32.88;19.48;;;-2.10;99.90;;;;;;5035959;28;20725;-55
2021/12/22 01:28:24;;;;;;;35.13;18.17;;;-2.10;99.90;;;;;;5036733;28;20225;-55
2021/12/22 01:30:51;;;;;;;33.15;19.08;;;-2.10;99.90;;;;;;5036133;28;20245;-55
2021/12/22 01:33:19;;;;;;;32.60;18.58;;;-2.10;99.90;;;;;;5035955;28;20202;-55
2021/12/22 01:35:47;;;;;;;41.65;20.30;;;-2.10;99.90;;;;;;5035545;28;20222;-55
2021/12/22 01:38:14;;;;;;;33.47;19.95;;;-2.10;99.90;;;;;;5036197;28;20199;-55
2021/12/22 01:40:44;;;;;;;39.67;19.83;;;-2.10;99.90;;;;;;5035720;28;20209;-54
2021/12/22 01:43:14;;;;;;;27.27;16.73;;;-2.00;99.90;;;;;;5036172;28;20210;-55
2021/12/22 01:45:55;;;;;;;30.77;18.77;;;-2.10;99.90;;;;;;5035497;28;20717;-55
2021/12/22 01:51:27;;;;;;;47.95;18.00;;;-2.10;99.90;;;;;;5036136;28;20365;-55
2021/12/22 01:53:59;;;;;;;48.40;18.27;;;-2.10;99.90;;;;;;5035662;28;20219;-55
2021/12/22 01:56:27;;;;;;;47.22;16.67;;;-2.20;99.90;;;;;;5036495;28;20226;-56
2021/12/22 01:58:56;;;;;;;35.97;17.83;;;-2.20;99.90;;;;;;5036014;28;20218;-55
2021/12/22 02:01:26;;;;;;;44.20;18.55;;;-2.20;99.90;;;;;;5035806;28;20221;-56
2021/12/22 02:03:54;;;;;;;38.58;16.98;;;-2.20;99.90;;;;;;5036164;28;20235;-56
2021/12/22 02:06:22;;;;;;;31.23;15.63;;;-2.30;99.90;;;;;;5035363;28;20229;-56
2021/12/22 02:08:52;;;;;;;32.05;16.90;;;-2.30;99.90;;;;;;5035289;28;20198;-55
2021/12/22 02:11:19;;;;;;;33.92;18.38;;;-2.20;99.90;;;;;;5035092;28;20733;-55
2021/12/22 02:13:52;;;;;;;28.70;16.45;;;-2.20;99.90;;;;;;5035266;28;20634;-55
2021/12/22 02:16:26;;;;;;;34.95;17.38;;;-2.20;99.90;;;;;;5035006;28;20580;-55
2021/12/22 02:18:55;;;;;;;31.05;15.57;;;-2.20;99.90;;;;;;5035277;28;20194;-55
2021/12/22 02:21:27;;;;;;;31.40;17.63;;;-2.10;99.90;;;;;;5034902;28;20297;-55
2021/12/22 02:23:54;;;;;;;30.80;16.00;;;-2.10;99.90;;;;;;5035198;28;20186;-56
2021/12/22 02:26:26;;;;;;;32.38;17.13;;;-2.10;99.90;;;;;;5034807;28;20706;-55
2021/12/22 02:28:59;;;;;;;29.38;16.60;;;-2.10;99.90;;;;;;5035209;28;20282;-56
2021/12/22 02:31:27;;;;;;;34.17;17.92;;;-2.00;99.90;;;;;;5035113;28;20191;-56
2021/12/22 02:33:54;;;;;;;34.60;16.50;;;-2.00;99.90;;;;;;5034888;28;20298;-56
2021/12/22 02:36:27;;;;;;;29.98;16.92;;;-2.00;99.90;;;;;;5034794;28;20702;-55
2021/12/22 02:38:57;;;;;;;30.00;15.90;;;-1.90;99.90;;;;;;5035990;28;20186;-55
2021/12/22 02:41:27;;;;;;;28.80;13.40;;;-1.90;99.90;;;;;;5035136;28;20266;-55
2021/12/22 02:43:56;;;;;;;35.30;16.65;;;-1.90;99.90;;;;;;5034659;28;20183;-55
2021/12/22 02:46:25;;;;;;;25.92;15.00;;;-1.90;99.90;;;;;;5034234;28;20710;-55
2021/12/22 02:48:53;;;;;;;26.15;13.38;;;-1.90;99.90;;;;;;5033596;28;20198;-55
2021/12/22 02:51:23;;;;;;;31.00;15.75;;;-1.90;99.90;;;;;;5034297;28;20697;-55
2021/12/22 02:54:02;;;;;;;26.58;14.50;;;-1.80;99.90;;;;;;5034171;28;20670;-56
2021/12/22 02:56:38;;;;;;;31.80;14.02;;;-1.80;99.90;;;;;;5034432;28;20317;-55
2021/12/22 02:59:28;;;;;;;23.10;12.75;;;-1.80;99.90;;;;;;5034142;28;20639;-55
2021/12/22 03:02:20;;;;;;;31.63;14.88;;;-1.90;99.90;;;;;;5034437;28;20195;-55
2021/12/22 03:04:52;;;;;;;33.95;15.52;;;-1.90;99.90;;;;;;5034028;28;20272;-55
2021/12/22 03:07:24;;;;;;;29.67;15.45;;;-1.90;99.90;;;;;;5034458;28;20278;-55
2021/12/22 03:10:00;;;;;;;27.33;15.65;;;-1.90;99.90;;;;;;5034843;28;20198;-55
2021/12/22 03:12:29;;;;;;;27.00;14.48;;;-2.00;99.90;;;;;;5034224;28;20194;-55
2021/12/22 03:14:56;;;;;;;32.75;15.45;;;-2.00;99.90;;;;;;5034021;28;20258;-55
2021/12/22 03:17:23;;;;;;;32.63;16.92;;;-2.00;99.90;;;;;;5033820;28;20241;-55
2021/12/22 03:19:50;;;;;;;30.17;15.38;;;-2.00;99.90;;;;;;5033791;28;20209;-55
2021/12/22 03:22:19;;;;;;;29.48;15.73;;;-2.00;99.90;;;;;;5033708;28;20674;-54
2021/12/22 03:24:50;;;;;;;25.77;13.35;;;-2.00;99.90;;;;;;5033568;28;20237;-54
2021/12/22 03:27:17;;;;;;;24.77;15.27;;;-2.00;99.90;;;;;;5034183;28;20186;-54
2021/12/22 03:29:44;;;;;;;27.60;14.95;;;-2.00;99.90;;;;;;5033560;28;20670;-56
2021/12/22 03:32:11;;;;;;;25.58;15.05;;;-2.10;99.90;;;;;;5033875;28;20213;-55
2021/12/22 03:34:40;;;;;;;26.35;14.57;;;-2.10;99.90;;;;;;5033359;28;20717;-55
2021/12/22 03:37:08;;;;;;;25.98;14.70;;;-2.10;99.90;;;;;;5034010;28;20213;-56
2021/12/22 03:39:36;;;;;;;26.98;15.57;;;-2.10;99.90;;;;;;5033735;28;20233;-55
2021/12/22 03:42:06;;;;;;;23.58;15.00;;;-2.10;99.90;;;;;;5033615;28;20209;-55
2021/12/22 03:44:33;;;;;;;24.95;15.07;;;-2.10;99.90;;;;;;5033763;28;20219;-55
2021/12/22 03:47:00;;;;;;;23.70;15.68;;;-2.10;99.90;;;;;;5033285;28;20206;-55
2021/12/22 03:49:29;;;;;;;23.70;14.10;;;-2.10;99.90;;;;;;5033578;28;20202;-55
2021/12/22 03:51:56;;;;;;;27.25;16.13;;;-2.10;99.90;;;;;;5033142;28;20577;-56
2021/12/22 03:54:23;;;;;;;26.13;15.23;;;-2.10;99.90;;;;;;5033024;28;20225;-55
2021/12/22 03:56:50;;;;;;;26.90;16.15;;;-2.10;99.90;;;;;;5033171;28;20206;-56
2021/12/22 03:59:20;;;;;;;29.40;15.27;;;-2.10;99.90;;;;;;5033258;28;20284;-55
2021/12/22 04:01:47;;;;;;;24.05;14.80;;;-2.10;99.90;;;;;;5033017;28;20237;-56
2021/12/22 04:04:17;;;;;;;27.10;15.00;;;-2.00;99.90;;;;;;5033976;28;20206;-55
2021/12/22 04:09:04;;;;;;;23.67;14.27;;;-2.00;99.90;;;;;;5091429;27;20538;-56
2021/12/22 04:11:31;;;;;;;26.42;15.30;;;-2.00;99.90;;;;;;5090538;28;20621;-56
2021/12/22 04:13:58;;;;;;;24.70;15.18;;;-2.00;99.90;;;;;;5090787;28;20207;-56
2021/12/22 04:16:25;;;;;;;27.98;15.18;;;-2.00;99.90;;;;;;5090761;28;20220;-55
2021/12/22 04:18:52;;;;;;;28.60;15.77;;;-2.00;99.90;;;;;;5090768;28;20200;-55
2021/12/22 04:21:19;;;;;;;23.50;14.55;;;-2.00;99.90;;;;;;5103181;22;20236;-59
2021/12/22 04:23:46;;;;;;;25.33;15.48;;;-2.00;99.90;;;;;;5050762;28;20208;-59
2021/12/22 04:26:15;;;;;;;25.40;16.58;;;-2.00;99.90;;;;;;5050484;28;20206;-58
2021/12/22 04:28:42;;;;;;;25.83;16.60;;;-2.00;99.90;;;;;;5050751;28;20244;-59
2021/12/22 04:31:10;;;;;;;26.20;16.52;;;-2.00;99.90;;;;;;5050442;28;20568;-58
2021/12/22 04:33:37;;;;;;;24.25;14.90;;;-2.00;99.90;;;;;;5050211;28;20204;-59
2021/12/22 04:36:05;;;;;;;30.13;17.65;;;-2.10;99.90;;;;;;5050139;28;20216;-59
2021/12/22 04:38:32;;;;;;;24.23;14.73;;;-2.10;99.90;;;;;;5050209;28;20205;-59
2021/12/22 04:40:59;;;;;;;24.33;16.20;;;-2.10;99.90;;;;;;5050853;28;20289;-59
2021/12/22 04:43:28;;;;;;;29.83;17.80;;;-2.10;99.90;;;;;;5050931;28;20209;-59
2021/12/22 04:45:55;;;;;;;25.67;15.50;;;-2.00;99.90;;;;;;5053977;28;20667;-59
2021/12/22 04:48:22;;;;;;;22.65;15.05;;;-2.10;99.90;;;;;;5055112;28;20733;-59
2021/12/22 04:50:49;;;;;;;24.02;14.57;;;-2.10;99.90;;;;;;5052617;28;20686;-60
2021/12/22 04:53:21;;;;;;;22.48;13.40;;;-2.10;99.90;;;;;;5053419;28;20202;-59
2021/12/22 04:55:48;;;;;;;24.65;14.90;;;-2.00;99.90;;;;;;5053276;28;20186;-59
2021/12/22 04:58:15;;;;;;;26.35;14.18;;;-2.10;99.90;;;;;;5054003;28;20198;-59
2021/12/22 05:00:44;;;;;;;23.27;14.93;;;-2.10;99.90;;;;;;5053113;28;20212;-59
2021/12/22 05:03:11;;;;;;;28.60;16.98;;;-2.10;99.90;;;;;;5050525;28;20202;-59
2021/12/22 05:05:39;;;;;;;23.88;14.80;;;-2.10;99.90;;;;;;5050823;28;20206;-59
2021/12/22 05:08:06;;;;;;;22.10;13.40;;;-2.10;99.90;;;;;;5050850;28;20268;-59
2021/12/22 05:10:33;;;;;;;22.63;13.70;;;-2.10;99.90;;;;;;5050938;28;20634;-59
2021/12/22 05:13:00;;;;;;;20.80;13.18;;;-2.10;99.90;;;;;;5050120;28;20729;-58
2021/12/22 05:15:36;;;;;;;19.98;11.57;;;-2.10;99.90;;;;;;5050197;28;20209;-58
2021/12/22 05:20:55;;;;;;;20.67;12.05;;;-2.30;99.90;;;;;;5030184;28;20202;-59
2021/12/22 05:23:22;;;;;;;20.77;12.32;;;-2.40;99.90;;;;;;5037954;28;20183;-59
2021/12/22 05:25:49;;;;;;;24.35;13.32;;;-2.50;99.90;;;;;;5038375;28;20202;-59
2021/12/22 05:28:16;;;;;;;22.63;13.20;;;-2.50;99.90;;;;;;5038553;28;20222;-59
2021/12/22 05:30:46;;;;;;;23.02;13.43;;;-2.50;99.90;;;;;;5037266;28;20210;-59
2021/12/22 05:33:15;;;;;;;23.20;13.98;;;-2.50;99.90;;;;;;5037785;28;20229;-59
2021/12/22 05:35:42;;;;;;;21.63;13.25;;;-2.50;99.90;;;;;;5036101;28;20209;-59
2021/12/22 05:38:09;;;;;;;23.83;13.45;;;-2.50;99.90;;;;;;5036074;28;20198;-59
2021/12/22 05:40:36;;;;;;;21.58;13.52;;;-2.40;99.90;;;;;;5036105;28;20229;-57
2021/12/22 05:43:03;;;;;;;22.30;13.05;;;-2.40;99.90;;;;;;5035905;28;20575;-58
2021/12/22 05:45:30;;;;;;;23.95;13.20;;;-2.40;99.90;;;;;;5036322;28;20222;-58
2021/12/22 05:47:57;;;;;;;26.38;17.08;;;-2.40;99.90;;;;;;5035918;28;20226;-59
2021/12/22 05:50:26;;;;;;;20.48;13.10;;;-2.30;99.90;;;;;;5041490;28;20203;-59
2021/12/22 05:52:53;;;;;;;22.42;13.20;;;-2.30;99.90;;;;;;5044672;28;20233;-56
2021/12/22 05:55:20;;;;;;;23.55;14.20;;;-2.30;99.90;;;;;;5045610;28;20203;-59
2021/12/22 05:57:47;;;;;;;19.60;13.52;;;-2.30;99.90;;;;;;5045626;28;20205;-58
2021/12/22 06:00:15;;;;;;;22.23;13.65;;;-2.30;99.90;;;;;;5041360;28;20202;-58
2021/12/22 06:02:43;;;;;;;23.02;13.77;;;-2.30;99.90;;;;;;5037027;28;20686;-59
2021/12/22 06:05:10;;;;;;;20.77;13.02;;;-2.30;99.90;;;;;;5035444;28;20206;-59
2021/12/22 06:07:39;;;;;;;25.13;13.25;;;-2.30;99.90;;;;;;5035741;28;20222;-57
2021/12/22 06:10:07;;;;;;;21.35;13.43;;;-2.30;99.90;;;;;;5035051;28;20205;-59
2021/12/22 06:12:34;;;;;;;24.77;13.23;;;-2.30;99.90;;;;;;5035105;28;20225;-58
2021/12/22 06:15:01;;;;;;;23.60;14.20;;;-2.30;99.90;;;;;;5035455;28;20209;-58
2021/12/22 06:17:28;;;;;;;26.25;13.10;;;-2.30;99.90;;;;;;5035047;28;20206;-58
2021/12/22 06:19:55;;;;;;;21.98;12.35;;;-2.30;99.90;;;;;;5034902;28;20202;-58
2021/12/22 06:22:23;;;;;;;21.02;14.23;;;-2.30;99.90;;;;;;5034932;28;20226;-56
2021/12/22 06:24:52;;;;;;;23.85;13.80;;;-2.40;99.90;;;;;;5035375;28;20209;-57
2021/12/22 06:27:19;;;;;;;18.70;11.60;;;-2.40;99.90;;;;;;5034945;28;20198;-57
2021/12/22 06:29:46;;;;;;;23.10;13.90;;;-2.50;99.90;;;;;;5035151;28;20281;-57
2021/12/22 06:32:13;;;;;;;22.00;12.13;;;-2.60;99.90;;;;;;5034079;28;20237;-57
2021/12/22 06:34:40;;;;;;;25.40;14.23;;;-2.60;99.90;;;;;;5035430;28;20202;-57
2021/12/22 06:37:08;;;;;;;27.45;12.65;;;-2.70;99.90;;;;;;5035505;28;20229;-58
2021/12/22 06:39:35;;;;;;;22.08;12.10;;;-2.70;99.90;;;;;;5035382;28;20198;-58
2021/12/22 06:42:04;;;;;;;22.95;13.65;;;-2.80;99.90;;;;;;5035324;28;20223;-57
2021/12/22 06:44:31;;;;;;;24.98;12.45;;;-2.80;99.90;;;;;;5035797;28;20225;-59
2021/12/22 06:46:58;;;;;;;21.75;13.30;;;-2.80;99.90;;;;;;5035917;28;20678;-58
2021/12/22 06:49:25;;;;;;;16.60;12.23;;;-2.80;99.90;;;;;;5035079;28;20228;-57
2021/12/22 06:51:52;;;;;;;22.02;12.23;;;-2.80;99.90;;;;;;5035017;28;20226;-57
2021/12/22 06:54:20;;;;;;;21.58;11.77;;;-2.80;99.90;;;;;;5035373;28;20203;-59
2021/12/22 06:56:47;;;;;;;23.13;14.38;;;-2.80;99.90;;;;;;5035101;28;20202;-57
2021/12/22 06:59:15;;;;;;;20.95;13.88;;;-2.80;99.90;;;;;;5035199;28;20198;-56
2021/12/22 07:01:43;;;;;;;20.60;13.13;;;-2.80;99.90;;;;;;5036521;28;20228;-58
2021/12/22 07:04:10;;;;;;;22.40;13.40;;;-2.80;99.90;;;;;;5040159;28;20214;-57
2021/12/22 07:06:37;;;;;;;24.70;12.82;;;-2.90;99.90;;;;;;5038898;28;20606;-59
2021/12/22 07:09:06;;;;;;;25.13;13.35;;;-2.90;99.90;;;;;;5034922;28;20226;-58
2021/12/22 07:11:34;;;;;;;20.60;12.80;;;-2.90;99.90;;;;;;5034926;28;20222;-58
2021/12/22 07:14:02;;;;;;;23.27;14.00;;;-2.90;99.90;;;;;;5037519;28;20226;-58
2021/12/22 07:16:30;;;;;;;30.48;14.55;;;-2.90;99.90;;;;;;5041033;28;20559;-59
2021/12/22 07:18:57;;;;;;;23.33;13.57;;;-2.90;99.90;;;;;;5039967;28;20210;-57
2021/12/22 07:21:24;;;;;;;25.00;13.70;;;-2.80;99.90;;;;;;5040036;28;20240;-58
2021/12/22 07:23:51;;;;;;;28.15;14.30;;;-2.80;99.90;;;;;;5039646;28;20202;-59
2021/12/22 07:26:18;;;;;;;27.60;13.40;;;-2.80;99.90;;;;;;5038695;28;20686;-58
2021/12/22 07:28:47;;;;;;;21.33;12.68;;;-2.80;99.90;;;;;;5037958;28;20222;-58
2021/12/22 07:31:16;;;;;;;21.45;13.02;;;-2.80;99.90;;;;;;5038011;28;20227;-58
2021/12/22 07:33:49;;;;;;;21.38;12.68;;;-2.80;99.90;;;;;;5038653;28;20209;-58
2021/12/22 07:36:16;;;;;;;20.30;12.10;;;-2.70;99.90;;;;;;5038506;28;20191;-56
2021/12/22 07:38:49;;;;;;;19.27;12.25;;;-2.70;99.90;;;;;;5038474;28;20205;-56
2021/12/22 07:41:16;;;;;;;22.80;13.15;;;-2.70;99.90;;;;;;5040248;28;20250;-58
2021/12/22 07:43:43;;;;;;;22.13;12.45;;;-2.70;99.90;;;;;;5041314;28;20214;-57
2021/12/22 07:46:10;;;;;;;24.88;14.88;;;-2.70;99.90;;;;;;5040989;28;20202;-58
2021/12/22 07:48:37;;;;;;;21.48;11.55;;;-2.70;99.90;;;;;;5037074;28;20222;-58
2021/12/22 07:51:06;;;;;;;18.15;12.20;;;-2.70;99.90;;;;;;5034070;28;20226;-56
2021/12/22 07:53:33;;;;;;;28.27;14.05;;;-2.70;99.90;;;;;;5034528;28;20207;-57
2021/12/22 07:56:00;;;;;;;20.88;13.18;;;-2.60;99.90;;;;;;5034548;28;20209;-59
2021/12/22 07:58:28;;;;;;;22.52;13.93;;;-2.60;99.90;;;;;;5034655;28;20205;-57
2021/12/22 08:00:56;;;;;;;21.40;12.18;;;-2.60;99.90;;;;;;5033722;28;20198;-58
2021/12/22 08:03:23;;;;;;;21.08;13.40;;;-2.60;99.90;;;;;;5033814;28;20217;-58
2021/12/22 08:05:50;;;;;;;20.60;11.85;;;-2.50;99.90;;;;;;5033677;28;20206;-58
2021/12/22 08:08:19;;;;;;;18.73;11.60;;;-2.50;99.90;;;;;;5033892;28;20229;-58
2021/12/22 08:10:47;;;;;;;24.30;13.00;;;-2.50;99.90;;;;;;5033941;28;20230;-57
2021/12/22 08:13:15;;;;;;;19.02;13.07;;;-2.40;99.90;;;;;;5033521;28;20213;-57
2021/12/22 08:15:42;;;;;;;18.95;11.43;;;-2.40;99.90;;;;;;5034566;28;20213;-58
2021/12/22 08:18:09;;;;;;;20.30;11.95;;;-2.30;99.90;;;;;;5036353;28;20228;-60
2021/12/22 08:20:36;;;;;;;21.38;13.18;;;-2.30;99.90;;;;;;5035321;28;20198;-60
2021/12/22 08:23:04;;;;;;;18.75;11.60;;;-2.30;99.90;;;;;;5035354;28;20316;-60
2021/12/22 08:25:32;;;;;;;17.85;10.70;;;-2.30;99.90;;;;;;5033437;28;20213;-59
2021/12/22 08:27:59;;;;;;;15.52;10.63;;;-2.20;99.90;;;;;;5033198;28;20202;-58
2021/12/22 08:30:27;;;;;;;21.77;13.35;;;-2.20;99.90;;;;;;5032795;28;20572;-59
2021/12/22 08:32:54;;;;;;;16.95;11.00;;;-2.10;99.90;;;;;;5033330;28;20404;-59
2021/12/22 08:35:24;;;;;;;16.02;11.75;;;-2.10;99.90;;;;;;5033286;28;20213;-59
2021/12/22 08:40:38;;;;;;;22.85;11.82;;;-2.00;99.90;;;;;;5033085;28;20269;-57
2021/12/22 08:43:05;;;;;;;15.73;11.13;;;-1.90;99.90;;;;;;5033741;28;20594;-59
2021/12/22 08:45:32;;;;;;;16.90;10.70;;;-1.90;99.90;;;;;;5034460;28;20225;-59
2021/12/22 08:47:59;;;;;;;17.58;11.38;;;-1.90;99.90;;;;;;5034351;28;20209;-58
2021/12/22 08:50:27;;;;;;;18.77;10.60;;;-1.80;99.90;;;;;;5033140;28;20209;-59
2021/12/22 08:52:55;;;;;;;17.52;11.10;;;-1.70;99.90;;;;;;5033101;28;20219;-59
2021/12/22 08:55:22;;;;;;;19.20;11.40;;;-1.60;99.90;;;;;;5036553;28;20724;-58
2021/12/22 08:57:51;;;;;;;19.20;10.07;;;-1.60;99.90;;;;;;5037042;28;20202;-59
2021/12/22 09:00:18;;;;;;;17.55;11.45;;;-1.50;99.90;;;;;;5037198;28;20221;-59
2021/12/22 09:02:46;;;;;;;15.38;10.73;;;-1.40;99.90;;;;;;5037314;28;20228;-59
2021/12/22 09:05:13;;;;;;;15.57;9.88;;;-1.30;99.90;;;;;;5037975;28;20207;-59
2021/12/22 09:07:40;;;;;;;17.98;10.95;;;-1.30;99.90;;;;;;5038246;28;20202;-58
2021/12/22 09:10:08;;;;;;;14.38;10.35;;;-1.20;99.90;;;;;;5037402;28;20575;-59
2021/12/22 09:12:35;;;;;;;15.15;9.48;;;-1.20;99.90;;;;;;5037289;28;20222;-57
2021/12/22 09:15:04;;;;;;;18.98;10.73;;;-1.30;99.90;;;;;;5037422;28;20206;-59
2021/12/22 09:17:31;;;;;;;18.13;11.88;;;-1.30;99.90;;;;;;5039658;28;20293;-59
2021/12/22 09:19:58;;;;;;;14.93;9.90;;;-1.20;99.90;;;;;;5039212;28;20225;-61
2021/12/22 09:22:26;;;;;;;15.40;10.80;;;-1.20;99.90;;;;;;5040283;28;20246;-58
2021/12/22 09:24:53;;;;;;;15.65;10.40;;;-1.20;99.90;;;;;;5039007;28;20198;-59
2021/12/22 09:27:20;;;;;;;16.52;9.32;;;-1.10;99.90;;;;;;5039757;28;20213;-59
2021/12/22 09:29:47;;;;;;;16.40;10.10;;;-1.20;99.90;;;;;;5039309;28;20690;-58
2021/12/22 09:32:17;;;;;;;20.30;11.07;;;-1.20;99.90;;;;;;5038809;28;20218;-59
2021/12/22 09:34:46;;;;;;;16.55;10.45;;;-1.20;99.90;;;;;;5037187;28;20628;-58
2021/12/22 09:37:13;;;;;;;14.82;9.90;;;-1.20;99.90;;;;;;5042407;28;20285;-63
2021/12/22 09:39:40;;;;;;;18.25;10.48;;;-1.10;99.90;;;;;;5040650;28;20199;-60
2021/12/22 09:42:07;;;;;;;15.23;9.68;;;-1.10;99.90;;;;;;5037131;28;20218;-58
2021/12/22 09:44:42;;;;;;;12.57;8.98;;;-1.00;99.90;;;;;;5036861;28;20229;-59
2021/12/22 09:47:09;;;;;;;14.93;10.30;;;-1.00;99.90;;;;;;5036514;28;20201;-58
2021/12/22 09:49:58;;;;;;;14.18;10.55;;;-0.90;99.90;;;;;;5036976;28;20226;-58
2021/12/22 09:52:27;;;;;;;16.33;10.10;;;-0.80;99.90;;;;;;5036477;28;20288;-59
2021/12/22 09:54:56;;;;;;;19.63;10.32;;;-0.70;99.90;;;;;;5036542;28;20581;-59
2021/12/22 09:57:24;;;;;;;14.75;10.07;;;-0.70;99.90;;;;;;5036524;28;20229;-58
2021/12/22 09:59:54;;;;;;;15.63;10.02;;;-0.60;99.90;;;;;;5036229;28;20202;-59
2021/12/22 10:02:25;;;;;;;47.35;22.48;;;-0.60;99.90;;;;;;5036810;28;20249;-59
2021/12/22 10:04:54;;;;;;;24.58;14.10;;;-0.60;99.90;;;;;;5036299;28;20190;-58
2021/12/22 10:07:26;;;;;;;27.55;15.00;;;-0.60;99.90;;;;;;5036304;28;20206;-57
2021/12/22 10:09:54;;;;;;;22.75;12.10;;;-0.50;99.90;;;;;;5035903;28;20282;-58
2021/12/22 10:12:23;;;;;;;14.77;9.70;;;-0.50;99.90;;;;;;5035909;28;20219;-59
2021/12/22 10:14:53;;;;;;;18.67;10.98;;;-0.40;99.90;;;;;;5035603;28;20209;-60
2021/12/22 10:17:33;;;;;;;18.33;12.00;;;-0.40;99.90;;;;;;5035765;28;20194;-57
2021/12/22 10:20:08;;;;;;;13.57;9.73;;;-0.30;99.90;;;;;;5035908;28;20291;-60
2021/12/22 10:22:37;;;;;;;17.95;10.20;;;-0.20;99.90;;;;;;5059325;22;20225;-55
2021/12/22 10:25:13;;;;;;;19.50;11.98;;;-0.20;99.90;;;;;;5034810;28;20222;-55
2021/12/22 10:27:44;;;;;;;16.58;9.75;;;-0.10;99.90;;;;;;5034840;28;20197;-55
2021/12/22 10:30:22;;;;;;;29.38;16.25;;;-0.10;99.90;;;;;;5035363;28;20585;-55
2021/12/22 10:32:49;;;;;;;26.55;16.88;;;0.00;99.90;;;;;;5034790;28;20234;-56
2021/12/22 10:35:18;;;;;;;19.20;12.57;;;-0.10;99.90;;;;;;5034844;28;20206;-56
2021/12/22 10:37:45;;;;;;;17.17;10.88;;;-0.10;99.90;;;;;;5034718;28;20199;-54
2021/12/22 10:40:23;;;;;;;15.95;9.60;;;-0.10;99.90;;;;;;5034164;28;20210;-54
2021/12/22 10:42:51;;;;;;;14.35;10.52;;;0.00;99.90;;;;;;5034053;28;20735;-55
2021/12/22 10:45:19;;;;;;;18.67;10.25;;;0.10;99.90;;;;;;5034199;28;20729;-55
2021/12/22 10:50:34;;;;;;;15.32;11.02;;;0.30;99.90;;;;;;5034093;28;20297;-54
2021/12/22 10:53:01;;;;;;;20.40;13.43;;;0.30;99.90;;;;;;5033831;28;20222;-54
2021/12/22 10:55:37;;;;;;;19.08;13.57;;;0.20;99.90;;;;;;5033792;28;20216;-54
2021/12/22 10:58:16;;;;;;;16.55;11.77;;;0.20;99.90;;;;;;5034131;28;20195;-54
2021/12/22 11:00:43;;;;;;;20.92;14.35;;;0.20;99.90;;;;;;5034068;28;20184;-54
2021/12/22 11:03:13;;;;;;;17.52;11.38;;;0.20;99.90;;;;;;5034662;28;20227;-56
2021/12/22 11:05:46;;;;;;;20.75;11.98;;;0.30;99.90;;;;;;5033644;28;20234;-55
2021/12/22 11:08:21;;;;;;;17.10;9.88;;;0.30;99.90;;;;;;5033633;28;20634;-56
2021/12/22 11:10:49;;;;;;;14.00;10.02;;;0.40;99.90;;;;;;5033551;28;20806;-56
2021/12/22 11:13:20;;;;;;;15.63;9.38;;;0.50;99.90;;;;;;5033667;28;20272;-55
2021/12/22 11:15:47;;;;;;;12.55;9.55;;;0.60;99.90;;;;;;5033571;28;20222;-55
2021/12/22 11:18:26;;;;;;;17.25;10.65;;;0.60;99.90;;;;;;5033601;28;20206;-55
2021/12/22 11:21:12;;;;;;;11.52;9.15;;;0.60;99.90;;;;;;5033629;28;20190;-55
2021/12/22 11:23:40;;;;;;;14.48;10.30;;;0.70;99.90;;;;;;5033352;28;20743;-54
2021/12/22 11:26:07;;;;;;;13.55;9.20;;;0.70;99.90;;;;;;5033389;28;20213;-55
2021/12/22 11:28:36;;;;;;;15.27;10.68;;;0.90;99.90;;;;;;5033528;28;20209;-56
2021/12/22 11:31:04;;;;;;;13.80;8.95;;;1.00;99.90;;;;;;5033217;28;20330;-56
2021/12/22 11:33:33;;;;;;;14.63;9.70;;;1.10;99.90;;;;;;5033325;28;20222;-56
2021/12/22 11:36:01;;;;;;;16.55;10.35;;;1.10;99.90;;;;;;5032970;28;20209;-54
2021/12/22 11:38:32;;;;;;;15.45;10.55;;;1.20;99.90;;;;;;5032922;28;20213;-55
2021/12/22 11:41:10;;;;;;;16.48;10.00;;;1.20;99.90;;;;;;5032996;28;20193;-55
2021/12/22 11:43:38;;;;;;;14.20;9.82;;;1.30;99.90;;;;;;5033166;28;20222;-55
2021/12/22 11:46:05;;;;;;;12.18;9.25;;;1.30;99.90;;;;;;5033444;28;20209;-56
2021/12/22 11:48:34;;;;;;;19.73;10.43;;;1.30;99.90;;;;;;5032679;28;20246;-55
2021/12/22 11:51:01;;;;;;;17.63;11.77;;;1.30;99.90;;;;;;5032812;28;20332;-55
2021/12/22 11:53:50;;;;;;;16.38;11.27;;;1.30;99.90;;;;;;5033101;28;20221;-56
2021/12/22 11:56:36;;;;;;;14.52;10.15;;;1.30;99.90;;;;;;5032808;28;20639;-55
2021/12/22 11:59:04;;;;;;;16.08;10.30;;;1.20;99.90;;;;;;5032640;28;20626;-56
2021/12/22 12:01:31;;;;;;;18.58;11.25;;;1.30;99.90;;;;;;5032393;28;20198;-55
2021/12/22 12:04:14;;;;;;;14.82;9.50;;;1.30;99.90;;;;;;5032792;28;20302;-55
2021/12/22 12:06:48;;;;;;;14.18;10.13;;;1.30;99.90;;;;;;5031310;28;20206;-55
2021/12/22 12:09:21;;;;;;;17.00;10.65;;;1.30;99.90;;;;;;5033235;28;20202;-55
2021/12/22 12:11:52;;;;;;;19.52;11.45;;;1.30;99.90;;;;;;5032649;28;20218;-55
2021/12/22 12:15:03;;;;;;;16.45;11.00;;;1.30;99.90;;;;;;5032711;28;20221;-55
2021/12/22 12:23:27;;;;;;;14.30;11.25;;;1.40;99.90;;;;;;5032881;28;20229;-54
2021/12/22 12:25:56;;;;;;;16.45;11.20;;;1.40;99.90;;;;;;5032655;28;20198;-55
2021/12/22 12:28:24;;;;;;;15.65;10.23;;;1.50;99.90;;;;;;5032605;28;20206;-54
2021/12/22 12:30:53;;;;;;;16.38;10.70;;;1.60;99.90;;;;;;5036492;28;20230;-54
2021/12/22 12:33:25;;;;;;;13.98;10.10;;;1.60;99.90;;;;;;5036301;28;20222;-55
2021/12/22 12:36:02;;;;;;;14.57;10.38;;;1.60;99.90;;;;;;5036437;28;20210;-55
2021/12/22 12:38:43;;;;;;;15.32;10.07;;;1.70;99.90;;;;;;5036964;28;20186;-55
2021/12/22 12:41:21;;;;;;;15.05;9.73;;;1.70;99.90;;;;;;5037047;28;20187;-56
2021/12/22 12:44:21;;;;;;;14.80;10.73;;;1.70;99.90;;;;;;5036555;28;20805;-56
2021/12/22 12:46:51;;;;;;;15.30;10.32;;;1.70;99.90;;;;;;5026877;28;20233;-55
2021/12/22 12:49:33;;;;;;;15.02;10.32;;;1.70;99.90;;;;;;5036682;28;20206;-54
2021/12/22 12:52:06;;;;;;;17.52;11.98;;;1.70;99.90;;;;;;5035922;28;20783;-55
2021/12/22 12:54:39;;;;;;;14.27;10.50;;;1.80;99.90;;;;;;5036160;28;20187;-55
2021/12/22 12:57:28;;;;;;;13.73;10.05;;;1.80;99.90;;;;;;5036989;28;20502;-56
2021/12/22 13:00:03;;;;;;;16.73;10.40;;;1.80;99.90;;;;;;5036473;28;20179;-55